sensor_id;sensor_type;location;lat;lon;timestamp;pressure;altitude;pressure_sealevel;temperature;humidity
66857;BME280;53766;50.280;19.160;2023-02-26T00:01:39;97206.28;;;16.69;50.91
66857;BME280;53766;50.280;19.160;2023-02-26T00:04:07;97207.09;;;16.70;50.84
66857;BME280;53766;50.280;19.160;2023-02-26T00:06:37;97201.78;;;16.70;50.80
66857;BME280;53766;50.280;19.160;2023-02-26T00:09:05;97211.63;;;16.69;50.86
66857;BME280;53766;50.280;19.160;2023-02-26T00:11:33;97211.63;;;16.69;50.92
66857;BME280;53766;50.280;19.160;2023-02-26T00:14:01;97213.69;;;16.67;50.75
66857;BME280;53766;50.280;19.160;2023-02-26T00:16:31;97219.00;;;16.67;50.83
66857;BME280;53766;50.280;19.160;2023-02-26T00:19:04;97219.00;;;16.67;50.72
66857;BME280;53766;50.280;19.160;2023-02-26T00:21:33;97225.94;;;16.68;50.70
66857;BME280;53766;50.280;19.160;2023-02-26T00:24:02;97217.38;;;16.66;50.79
66857;BME280;53766;50.280;19.160;2023-02-26T00:26:30;97233.34;;;16.66;50.91
66857;BME280;53766;50.280;19.160;2023-02-26T00:28:58;97234.13;;;16.66;50.80
66857;BME280;53766;50.280;19.160;2023-02-26T00:31:26;97239.66;;;16.65;50.77
66857;BME280;53766;50.280;19.160;2023-02-26T00:33:54;97242.34;;;16.65;50.84
66857;BME280;53766;50.280;19.160;2023-02-26T00:39:25;97253.78;;;16.65;50.86
66857;BME280;53766;50.280;19.160;2023-02-26T00:41:57;97250.50;;;16.63;50.99
66857;BME280;53766;50.280;19.160;2023-02-26T00:44:24;97256.66;;;16.64;50.87
66857;BME280;53766;50.280;19.160;2023-02-26T00:52:16;97274.22;;;16.65;50.98
66857;BME280;53766;50.280;19.160;2023-02-26T00:54:46;97275.28;;;16.64;50.83
66857;BME280;53766;50.280;19.160;2023-02-26T00:57:13;97282.41;;;16.63;50.83
66857;BME280;53766;50.280;19.160;2023-02-26T00:59:41;97280.59;;;16.64;50.88
66857;BME280;53766;50.280;19.160;2023-02-26T01:02:08;97281.59;;;16.63;50.92
66857;BME280;53766;50.280;19.160;2023-02-26T01:04:36;97284.28;;;16.63;50.91
66857;BME280;53766;50.280;19.160;2023-02-26T01:07:04;97290.63;;;16.62;50.91
66857;BME280;53766;50.280;19.160;2023-02-26T01:09:32;97289.59;;;16.63;50.83
66857;BME280;53766;50.280;19.160;2023-02-26T01:12:04;97285.31;;;16.62;50.88
66857;BME280;53766;50.280;19.160;2023-02-26T01:14:32;97292.25;;;16.63;50.92
66857;BME280;53766;50.280;19.160;2023-02-26T01:17:07;97286.13;;;16.62;50.83
66857;BME280;53766;50.280;19.160;2023-02-26T01:22:14;97280.00;;;16.62;50.90
66857;BME280;53766;50.280;19.160;2023-02-26T01:24:42;97286.34;;;16.61;50.81
66857;BME280;53766;50.280;19.160;2023-02-26T01:27:10;97282.06;;;16.60;50.54
66857;BME280;53766;50.280;19.160;2023-02-26T01:29:37;97286.34;;;16.61;50.77
66857;BME280;53766;50.280;19.160;2023-02-26T01:32:24;97289.00;;;16.61;50.81
66857;BME280;53766;50.280;19.160;2023-02-26T01:40:44;97303.31;;;16.60;50.69
66857;BME280;53766;50.280;19.160;2023-02-26T01:43:52;97301.25;;;16.62;50.74
66857;BME280;53766;50.280;19.160;2023-02-26T01:49:24;97313.97;;;16.60;50.66
66857;BME280;53766;50.280;19.160;2023-02-26T01:54:23;97308.66;;;16.60;50.69
66857;BME280;53766;50.280;19.160;2023-02-26T01:57:01;97317.63;;;16.59;50.61
66857;BME280;53766;50.280;19.160;2023-02-26T01:59:34;97313.16;;;16.59;50.57
66857;BME280;53766;50.280;19.160;2023-02-26T02:02:05;97324.59;;;16.60;50.72
66857;BME280;53766;50.280;19.160;2023-02-26T02:04:34;97318.69;;;16.58;50.60
66857;BME280;53766;50.280;19.160;2023-02-26T02:07:03;97324.59;;;16.60;50.51
66857;BME280;53766;50.280;19.160;2023-02-26T02:09:31;97324.00;;;16.58;50.52
66857;BME280;53766;50.280;19.160;2023-02-26T02:15:14;97329.91;;;16.60;50.53
66857;BME280;53766;50.280;19.160;2023-02-26T02:18:03;97342.59;;;16.58;50.47
66857;BME280;53766;50.280;19.160;2023-02-26T02:23:43;97349.53;;;16.59;50.51
66857;BME280;53766;50.280;19.160;2023-02-26T02:26:49;97371.03;;;16.57;50.49
66857;BME280;53766;50.280;19.160;2023-02-26T02:30:00;97377.38;;;16.56;50.43
66857;BME280;53766;50.280;19.160;2023-02-26T02:32:41;97380.84;;;16.57;50.40
66857;BME280;53766;50.280;19.160;2023-02-26T02:35:17;97379.22;;;16.56;50.39
66857;BME280;53766;50.280;19.160;2023-02-26T02:40:29;97390.66;;;16.56;50.50
66857;BME280;53766;50.280;19.160;2023-02-26T02:43:15;97388.22;;;16.55;50.38
66857;BME280;53766;50.280;19.160;2023-02-26T02:46:20;97394.38;;;16.55;50.36
66857;BME280;53766;50.280;19.160;2023-02-26T02:51:28;97392.50;;;16.56;50.31
66857;BME280;53766;50.280;19.160;2023-02-26T02:54:07;97383.94;;;16.54;50.40
66857;BME280;53766;50.280;19.160;2023-02-26T02:59:22;97390.06;;;16.54;50.38
66857;BME280;53766;50.280;19.160;2023-02-26T03:01:59;97390.88;;;16.55;50.22
66857;BME280;53766;50.280;19.160;2023-02-26T03:04:30;97385.56;;;16.55;50.31
66857;BME280;53766;50.280;19.160;2023-02-26T03:06:57;97392.97;;;16.53;50.30
66857;BME280;53766;50.280;19.160;2023-02-26T03:09:25;97394.56;;;16.54;50.19
66857;BME280;53766;50.280;19.160;2023-02-26T03:11:52;97407.25;;;16.52;50.19
66857;BME280;53766;50.280;19.160;2023-02-26T03:14:20;97403.34;;;16.54;50.15
66857;BME280;53766;50.280;19.160;2023-02-26T03:20:18;97412.56;;;16.52;50.27
66857;BME280;53766;50.280;19.160;2023-02-26T03:28:35;97439.97;;;16.52;50.01
66857;BME280;53766;50.280;19.160;2023-02-26T03:31:15;97446.31;;;16.51;50.16
66857;BME280;53766;50.280;19.160;2023-02-26T03:33:59;97450.84;;;16.51;50.01
66857;BME280;53766;50.280;19.160;2023-02-26T03:36:35;97445.50;;;16.51;50.18
66857;BME280;53766;50.280;19.160;2023-02-26T03:39:15;97447.34;;;16.50;50.03
66857;BME280;53766;50.280;19.160;2023-02-26T03:42:04;97465.72;;;16.52;50.06
66857;BME280;53766;50.280;19.160;2023-02-26T03:44:38;97453.50;;;16.51;50.10
66857;BME280;53766;50.280;19.160;2023-02-26T03:47:10;97466.19;;;16.49;49.89
66857;BME280;53766;50.280;19.160;2023-02-26T03:49:43;97474.16;;;16.49;49.79
66857;BME280;53766;50.280;19.160;2023-02-26T03:52:12;97482.13;;;16.49;49.86
66857;BME280;53766;50.280;19.160;2023-02-26T03:54:45;97480.47;;;16.48;49.92
66857;BME280;53766;50.280;19.160;2023-02-26T03:57:16;97479.66;;;16.47;49.90
66857;BME280;53766;50.280;19.160;2023-02-26T03:59:43;97483.13;;;16.48;49.86
66857;BME280;53766;50.280;19.160;2023-02-26T04:02:15;97486.59;;;16.48;49.77
66857;BME280;53766;50.280;19.160;2023-02-26T04:04:48;97484.19;;;16.47;49.94
66857;BME280;53766;50.280;19.160;2023-02-26T04:07:18;97496.44;;;16.48;49.87
66857;BME280;53766;50.280;19.160;2023-02-26T04:09:48;97498.47;;;16.45;49.84
66857;BME280;53766;50.280;19.160;2023-02-26T04:12:27;97503.78;;;16.45;49.71
66857;BME280;53766;50.280;19.160;2023-02-26T04:14:55;97501.38;;;16.44;49.80
66857;BME280;53766;50.280;19.160;2023-02-26T04:17:23;97498.47;;;16.45;49.70
66857;BME280;53766;50.280;19.160;2023-02-26T04:19:51;97509.13;;;16.45;49.84
66857;BME280;53766;50.280;19.160;2023-02-26T04:22:18;97508.50;;;16.43;49.72
66857;BME280;53766;50.280;19.160;2023-02-26T04:24:46;97511.16;;;16.43;49.88
66857;BME280;53766;50.280;19.160;2023-02-26T04:27:13;97505.84;;;16.43;49.75
66857;BME280;53766;50.280;19.160;2023-02-26T04:29:41;97515.88;;;16.41;49.72
66857;BME280;53766;50.280;19.160;2023-02-26T04:32:08;97517.53;;;16.42;49.65
66857;BME280;53766;50.280;19.160;2023-02-26T04:34:36;97529.16;;;16.41;49.91
66857;BME280;53766;50.280;19.160;2023-02-26T04:37:03;97532.88;;;16.40;49.70
66857;BME280;53766;50.280;19.160;2023-02-26T04:39:30;97531.81;;;16.41;49.69
66857;BME280;53766;50.280;19.160;2023-02-26T04:41:58;97529.16;;;16.41;49.74
66857;BME280;53766;50.280;19.160;2023-02-26T04:44:25;97535.53;;;16.40;49.74
66857;BME280;53766;50.280;19.160;2023-02-26T04:46:53;97536.53;;;16.39;49.75
66857;BME280;53766;50.280;19.160;2023-02-26T04:49:20;97538.19;;;16.40;49.72
66857;BME280;53766;50.280;19.160;2023-02-26T04:51:48;97547.16;;;16.39;49.51
66857;BME280;53766;50.280;19.160;2023-02-26T04:54:15;97552.47;;;16.39;49.65
66857;BME280;53766;50.280;19.160;2023-02-26T04:56:43;97549.00;;;16.39;49.68
66857;BME280;53766;50.280;19.160;2023-02-26T04:59:10;97563.09;;;16.39;49.70
66857;BME280;53766;50.280;19.160;2023-02-26T05:01:38;97571.09;;;16.39;49.54
66857;BME280;53766;50.280;19.160;2023-02-26T05:04:05;97567.63;;;16.39;49.49
66857;BME280;53766;50.280;19.160;2023-02-26T05:06:33;97572.13;;;16.38;49.52
66857;BME280;53766;50.280;19.160;2023-02-26T05:09:02;97570.47;;;16.37;49.58
66857;BME280;53766;50.280;19.160;2023-02-26T05:11:29;97574.78;;;16.38;49.44
66857;BME280;53766;50.280;19.160;2023-02-26T05:13:56;97588.06;;;16.38;49.55
66857;BME280;53766;50.280;19.160;2023-02-26T05:16:25;97586.41;;;16.37;49.57
66857;BME280;53766;50.280;19.160;2023-02-26T05:18:53;97576.84;;;16.36;49.37
66857;BME280;53766;50.280;19.160;2023-02-26T05:21:20;97586.41;;;16.37;49.41
66857;BME280;53766;50.280;19.160;2023-02-26T05:23:51;97595.44;;;16.36;49.47
66857;BME280;53766;50.280;19.160;2023-02-26T05:26:19;97601.56;;;16.37;49.49
66857;BME280;53766;50.280;19.160;2023-02-26T05:28:46;97603.41;;;16.36;49.40
66857;BME280;53766;50.280;19.160;2023-02-26T05:31:14;97604.00;;;16.38;49.35
66857;BME280;53766;50.280;19.160;2023-02-26T05:33:41;97606.88;;;16.37;49.41
66857;BME280;53766;50.280;19.160;2023-02-26T05:36:09;97607.69;;;16.37;49.16
66857;BME280;53766;50.280;19.160;2023-02-26T05:38:37;97615.88;;;16.36;49.35
66857;BME280;53766;50.280;19.160;2023-02-26T05:41:05;97620.38;;;16.35;49.46
66857;BME280;53766;50.280;19.160;2023-02-26T05:43:32;97632.63;;;16.36;49.22
66857;BME280;53766;50.280;19.160;2023-02-26T05:46:00;97641.66;;;16.35;49.31
66857;BME280;53766;50.280;19.160;2023-02-26T05:48:27;97647.78;;;16.36;49.24
66857;BME280;53766;50.280;19.160;2023-02-26T05:50:55;97644.31;;;16.35;49.24
66857;BME280;53766;50.280;19.160;2023-02-26T05:53:23;97654.94;;;16.35;49.21
66857;BME280;53766;50.280;19.160;2023-02-26T05:55:52;97669.22;;;16.34;49.31
66857;BME280;53766;50.280;19.160;2023-02-26T05:58:19;97680.91;;;16.33;49.27
66857;BME280;53766;50.280;19.160;2023-02-26T06:00:47;97678.25;;;16.33;49.09
66857;BME280;53766;50.280;19.160;2023-02-26T06:03:15;97687.84;;;16.34;49.12
66857;BME280;53766;50.280;19.160;2023-02-26T06:05:42;97685.38;;;16.33;49.04
66857;BME280;53766;50.280;19.160;2023-02-26T06:08:10;97688.88;;;16.33;49.23
66857;BME280;53766;50.280;19.160;2023-02-26T06:10:42;97688.88;;;16.33;49.12
66857;BME280;53766;50.280;19.160;2023-02-26T06:13:10;97688.88;;;16.33;49.04
66857;BME280;53766;50.280;19.160;2023-02-26T06:15:38;97697.44;;;16.35;48.96
66857;BME280;53766;50.280;19.160;2023-02-26T06:18:05;97711.75;;;16.34;48.90
66857;BME280;53766;50.280;19.160;2023-02-26T06:20:33;97710.13;;;16.33;49.05
66857;BME280;53766;50.280;19.160;2023-02-26T06:23:00;97712.78;;;16.33;49.17
66857;BME280;53766;50.280;19.160;2023-02-26T06:25:28;97719.72;;;16.34;48.97
66857;BME280;53766;50.280;19.160;2023-02-26T06:27:55;97735.06;;;16.32;49.10
66857;BME280;53766;50.280;19.160;2023-02-26T06:30:23;97728.94;;;16.32;49.15
66857;BME280;53766;50.280;19.160;2023-02-26T06:32:50;97731.59;;;16.32;49.14
66857;BME280;53766;50.280;19.160;2023-02-26T06:35:18;97731.59;;;16.32;49.13
66857;BME280;53766;50.280;19.160;2023-02-26T06:37:45;97738.75;;;16.31;49.26
66857;BME280;53766;50.280;19.160;2023-02-26T06:40:13;97746.72;;;16.31;49.38
66857;BME280;53766;50.280;19.160;2023-02-26T06:42:40;97751.00;;;16.32;49.40
66857;BME280;53766;50.280;19.160;2023-02-26T06:45:08;97752.03;;;16.31;49.24
66857;BME280;53766;50.280;19.160;2023-02-26T06:47:36;97760.00;;;16.31;49.34
66857;BME280;53766;50.280;19.160;2023-02-26T06:50:04;97763.66;;;16.30;49.39
66857;BME280;53766;50.280;19.160;2023-02-26T06:52:32;97761.81;;;16.31;49.46
66857;BME280;53766;50.280;19.160;2023-02-26T06:54:59;97764.28;;;16.32;49.51
66857;BME280;53766;50.280;19.160;2023-02-26T06:57:27;97771.66;;;16.30;49.34
66857;BME280;53766;50.280;19.160;2023-02-26T06:59:54;97781.25;;;16.31;49.46
66857;BME280;53766;50.280;19.160;2023-02-26T07:02:22;97779.63;;;16.30;49.43
66857;BME280;53766;50.280;19.160;2023-02-26T07:04:50;97774.09;;;16.32;49.51
66857;BME280;53766;50.280;19.160;2023-02-26T07:07:17;97774.09;;;16.32;49.46
66857;BME280;53766;50.280;19.160;2023-02-26T07:09:45;97777.56;;;16.32;49.38
66857;BME280;53766;50.280;19.160;2023-02-26T07:12:12;97780.22;;;16.32;49.44
66857;BME280;53766;50.280;19.160;2023-02-26T07:14:40;97780.22;;;16.32;49.37
66857;BME280;53766;50.280;19.160;2023-02-26T07:17:09;97780.44;;;16.31;49.25
66857;BME280;53766;50.280;19.160;2023-02-26T07:19:36;97782.88;;;16.32;49.12
66857;BME280;53766;50.280;19.160;2023-02-26T07:22:04;97793.50;;;16.32;49.06
66857;BME280;53766;50.280;19.160;2023-02-26T07:24:31;97787.19;;;16.33;49.03
66857;BME280;53766;50.280;19.160;2023-02-26T07:26:58;97793.31;;;16.34;49.08
66857;BME280;53766;50.280;19.160;2023-02-26T07:29:26;97798.81;;;16.32;48.92
66857;BME280;53766;50.280;19.160;2023-02-26T07:31:53;97801.47;;;16.32;49.22
66857;BME280;53766;50.280;19.160;2023-02-26T07:34:21;97808.84;;;16.30;49.29
66857;BME280;53766;50.280;19.160;2023-02-26T07:36:49;97812.53;;;16.29;49.45
66857;BME280;53766;50.280;19.160;2023-02-26T07:39:16;97817.84;;;16.29;49.36
66857;BME280;53766;50.280;19.160;2023-02-26T07:41:43;97823.16;;;16.29;49.22
66857;BME280;53766;50.280;19.160;2023-02-26T07:44:11;97824.16;;;16.28;49.11
66857;BME280;53766;50.280;19.160;2023-02-26T07:46:41;97821.50;;;16.28;48.96
66857;BME280;53766;50.280;19.160;2023-02-26T07:49:09;97818.84;;;16.28;48.97
66857;BME280;53766;50.280;19.160;2023-02-26T07:51:36;97824.16;;;16.28;48.99
66857;BME280;53766;50.280;19.160;2023-02-26T07:54:05;97824.41;;;16.27;48.77
66857;BME280;53766;50.280;19.160;2023-02-26T07:56:32;97829.72;;;16.27;48.87
66857;BME280;53766;50.280;19.160;2023-02-26T07:59:00;97835.03;;;16.27;48.76
66857;BME280;53766;50.280;19.160;2023-02-26T08:01:27;97837.88;;;16.25;48.60
66857;BME280;53766;50.280;19.160;2023-02-26T08:03:58;97842.16;;;16.26;48.29
66857;BME280;53766;50.280;19.160;2023-02-26T08:06:26;97843.19;;;16.25;48.26
66857;BME280;53766;50.280;19.160;2023-02-26T08:08:54;97844.19;;;16.24;48.29
66857;BME280;53766;50.280;19.160;2023-02-26T08:11:22;97845.84;;;16.25;48.01
66857;BME280;53766;50.280;19.160;2023-02-26T08:13:50;97851.16;;;16.25;47.85
66857;BME280;53766;50.280;19.160;2023-02-26T08:16:18;97848.50;;;16.25;47.82
66857;BME280;53766;50.280;19.160;2023-02-26T08:18:46;97852.78;;;16.26;47.89
66857;BME280;53766;50.280;19.160;2023-02-26T08:21:27;97849.31;;;16.25;47.74
66857;BME280;53766;50.280;19.160;2023-02-26T08:23:54;97843.19;;;16.25;47.83
66857;BME280;53766;50.280;19.160;2023-02-26T08:26:22;97844.00;;;16.25;47.83
66857;BME280;53766;50.280;19.160;2023-02-26T08:28:50;97849.31;;;16.25;47.70
66857;BME280;53766;50.280;19.160;2023-02-26T08:31:18;97860.75;;;16.26;47.66
66857;BME280;53766;50.280;19.160;2023-02-26T08:33:46;97860.75;;;16.26;47.68
66857;BME280;53766;50.280;19.160;2023-02-26T08:36:14;97875.69;;;16.27;47.55
66857;BME280;53766;50.280;19.160;2023-02-26T08:38:41;97891.03;;;16.25;47.55
66857;BME280;53766;50.280;19.160;2023-02-26T08:41:09;97895.53;;;16.24;47.65
66857;BME280;53766;50.280;19.160;2023-02-26T08:43:36;97910.63;;;16.24;47.34
66857;BME280;53766;50.280;19.160;2023-02-26T08:46:04;97907.16;;;16.23;47.29
66857;BME280;53766;50.280;19.160;2023-02-26T08:48:31;97911.84;;;16.21;47.35
66857;BME280;53766;50.280;19.160;2023-02-26T08:50:59;97911.84;;;16.21;47.25
66857;BME280;53766;50.280;19.160;2023-02-26T08:53:26;97911.03;;;16.21;47.16
66857;BME280;53766;50.280;19.160;2023-02-26T08:55:53;97911.03;;;16.21;47.16
66857;BME280;53766;50.280;19.160;2023-02-26T08:58:21;97907.56;;;16.20;46.92
66857;BME280;53766;50.280;19.160;2023-02-26T09:00:49;97905.94;;;16.19;46.93
66857;BME280;53766;50.280;19.160;2023-02-26T09:03:17;97906.16;;;16.18;46.94
66857;BME280;53766;50.280;19.160;2023-02-26T09:05:44;97913.91;;;16.19;46.90
66857;BME280;53766;50.280;19.160;2023-02-26T09:08:12;97911.47;;;16.18;47.08
66857;BME280;53766;50.280;19.160;2023-02-26T09:10:42;97907.78;;;16.19;46.91
66857;BME280;53766;50.280;19.160;2023-02-26T09:13:10;97916.34;;;16.21;46.81
66857;BME280;53766;50.280;19.160;2023-02-26T09:15:37;97919.63;;;16.23;46.89
66857;BME280;53766;50.280;19.160;2023-02-26T09:18:05;97917.16;;;16.21;46.96
66857;BME280;53766;50.280;19.160;2023-02-26T09:20:32;97912.66;;;16.22;46.92
66857;BME280;53766;50.280;19.160;2023-02-26T09:23:00;97921.25;;;16.24;46.84
66857;BME280;53766;50.280;19.160;2023-02-26T09:25:27;97933.53;;;16.25;46.90
66857;BME280;53766;50.280;19.160;2023-02-26T09:27:55;97934.34;;;16.25;46.79
66857;BME280;53766;50.280;19.160;2023-02-26T09:30:25;97931.50;;;16.27;46.79
66857;BME280;53766;50.280;19.160;2023-02-26T09:32:52;97934.16;;;16.27;46.89
66857;BME280;53766;50.280;19.160;2023-02-26T09:35:20;97945.78;;;16.26;46.95
66857;BME280;53766;50.280;19.160;2023-02-26T09:37:48;97946.41;;;16.28;46.90
66857;BME280;53766;50.280;19.160;2023-02-26T09:46:16;97971.34;;;16.27;46.71
66857;BME280;53766;50.280;19.160;2023-02-26T09:48:48;97971.53;;;16.25;46.78
66857;BME280;53766;50.280;19.160;2023-02-26T09:51:20;97979.53;;;16.25;46.95
66857;BME280;53766;50.280;19.160;2023-02-26T09:53:50;97982.97;;;16.26;46.97
66857;BME280;53766;50.280;19.160;2023-02-26T09:56:24;97983.81;;;16.27;46.68
66857;BME280;53766;50.280;19.160;2023-02-26T09:58:54;97989.97;;;16.27;46.96
66857;BME280;53766;50.280;19.160;2023-02-26T10:01:26;97984.63;;;16.27;46.89
66857;BME280;53766;50.280;19.160;2023-02-26T10:04:21;97977.06;;;16.31;46.89
66857;BME280;53766;50.280;19.160;2023-02-26T10:12:15;97987.13;;;16.35;46.93
66857;BME280;53766;50.280;19.160;2023-02-26T10:17:22;98006.53;;;16.36;46.91
66857;BME280;53766;50.280;19.160;2023-02-26T10:19:59;98008.38;;;16.35;46.88
66857;BME280;53766;50.280;19.160;2023-02-26T10:22:39;98016.94;;;16.37;46.81
66857;BME280;53766;50.280;19.160;2023-02-26T10:25:18;98028.41;;;16.38;46.98
66857;BME280;53766;50.280;19.160;2023-02-26T10:30:27;98019.59;;;16.37;46.87
66857;BME280;53766;50.280;19.160;2023-02-26T10:36:24;98014.28;;;16.37;47.02
66857;BME280;53766;50.280;19.160;2023-02-26T10:39:31;98036.56;;;16.36;47.14
66857;BME280;53766;50.280;19.160;2023-02-26T10:42:09;98032.28;;;16.35;46.91
66857;BME280;53766;50.280;19.160;2023-02-26T10:50:03;98047.81;;;16.38;46.95
66857;BME280;53766;50.280;19.160;2023-02-26T10:52:32;98046.78;;;16.39;46.91
66857;BME280;53766;50.280;19.160;2023-02-26T10:55:28;98043.75;;;16.36;46.84
66857;BME280;53766;50.280;19.160;2023-02-26T10:58:08;98055.81;;;16.38;46.84
66857;BME280;53766;50.280;19.160;2023-02-26T11:00:38;98061.13;;;16.38;46.82
66857;BME280;53766;50.280;19.160;2023-02-26T11:03:09;98059.47;;;16.37;46.72
66857;BME280;53766;50.280;19.160;2023-02-26T11:05:40;98064.59;;;16.39;46.98
66857;BME280;53766;50.280;19.160;2023-02-26T11:08:28;98063.16;;;16.36;46.95
66857;BME280;53766;50.280;19.160;2023-02-26T11:11:01;98063.78;;;16.38;46.88
66857;BME280;53766;50.280;19.160;2023-02-26T11:13:32;98062.75;;;16.39;46.99
66857;BME280;53766;50.280;19.160;2023-02-26T11:16:02;98077.06;;;16.38;47.07
66857;BME280;53766;50.280;19.160;2023-02-26T11:18:41;98080.72;;;16.37;47.29
66857;BME280;53766;50.280;19.160;2023-02-26T11:21:17;98086.03;;;16.37;47.13
66857;BME280;53766;50.280;19.160;2023-02-26T11:23:45;98080.72;;;16.37;47.27
66857;BME280;53766;50.280;19.160;2023-02-26T11:26:16;98083.38;;;16.37;47.16
66857;BME280;53766;50.280;19.160;2023-02-26T11:28:49;98072.75;;;16.37;47.26
66857;BME280;53766;50.280;19.160;2023-02-26T11:31:19;98084.41;;;16.36;47.17
66857;BME280;53766;50.280;19.160;2023-02-26T11:33:49;98084.41;;;16.36;47.22
66857;BME280;53766;50.280;19.160;2023-02-26T11:36:19;98099.56;;;16.36;47.20
66857;BME280;53766;50.280;19.160;2023-02-26T11:38:54;98107.72;;;16.34;47.15
66857;BME280;53766;50.280;19.160;2023-02-26T11:41:23;98106.72;;;16.35;47.14
66857;BME280;53766;50.280;19.160;2023-02-26T11:44:01;98113.84;;;16.35;47.02
66857;BME280;53766;50.280;19.160;2023-02-26T11:46:29;98118.34;;;16.34;46.97
66857;BME280;53766;50.280;19.160;2023-02-26T11:48:59;98119.38;;;16.33;47.16
66857;BME280;53766;50.280;19.160;2023-02-26T11:51:28;98119.56;;;16.32;47.20
66857;BME280;53766;50.280;19.160;2023-02-26T11:53:58;98132.66;;;16.33;46.97
66857;BME280;53766;50.280;19.160;2023-02-26T11:56:41;98134.47;;;16.33;47.01
66857;BME280;53766;50.280;19.160;2023-02-26T11:59:19;98133.84;;;16.31;47.15
66857;BME280;53766;50.280;19.160;2023-02-26T12:01:48;98138.34;;;16.30;47.09
66857;BME280;53766;50.280;19.160;2023-02-26T12:04:24;98142.66;;;16.31;47.03
66857;BME280;53766;50.280;19.160;2023-02-26T12:06:54;98143.66;;;16.30;47.04
66857;BME280;53766;50.280;19.160;2023-02-26T12:09:24;98142.66;;;16.31;46.97
66857;BME280;53766;50.280;19.160;2023-02-26T12:15:20;98144.47;;;16.31;46.84
66857;BME280;53766;50.280;19.160;2023-02-26T12:20:52;98156.97;;;16.30;46.81
66857;BME280;53766;50.280;19.160;2023-02-26T12:26:25;98163.31;;;16.29;46.76
66857;BME280;53766;50.280;19.160;2023-02-26T12:31:50;98176.78;;;16.28;46.78
66857;BME280;53766;50.280;19.160;2023-02-26T12:37:45;98179.25;;;16.29;46.85
66857;BME280;53766;50.280;19.160;2023-02-26T12:43:14;98184.56;;;16.29;46.81
66857;BME280;53766;50.280;19.160;2023-02-26T12:45:46;98188.22;;;16.28;46.65
66857;BME280;53766;50.280;19.160;2023-02-26T12:48:35;98183.94;;;16.27;46.75
66857;BME280;53766;50.280;19.160;2023-02-26T13:05:23;98208.03;;;16.25;46.55
66857;BME280;53766;50.280;19.160;2023-02-26T13:13:40;98212.53;;;16.25;46.60
66857;BME280;53766;50.280;19.160;2023-02-26T13:16:28;98209.88;;;16.25;46.51
66857;BME280;53766;50.280;19.160;2023-02-26T13:21:58;98216.00;;;16.25;46.37
66857;BME280;53766;50.280;19.160;2023-02-26T13:24:36;98221.31;;;16.25;46.54
66857;BME280;53766;50.280;19.160;2023-02-26T13:27:07;98230.09;;;16.26;46.21
66857;BME280;53766;50.280;19.160;2023-02-26T13:29:40;98230.31;;;16.24;46.30
66857;BME280;53766;50.280;19.160;2023-02-26T13:32:15;98238.31;;;16.24;46.37
66857;BME280;53766;50.280;19.160;2023-02-26T13:34:49;98233.16;;;16.23;46.24
66857;BME280;53766;50.280;19.160;2023-02-26T13:37:29;98241.31;;;16.21;46.19
66857;BME280;53766;50.280;19.160;2023-02-26T13:53:58;98278.97;;;16.25;46.49
66857;BME280;53766;50.280;19.160;2023-02-26T13:59:23;98273.66;;;16.25;46.43
66857;BME280;53766;50.280;19.160;2023-02-26T14:01:56;98284.28;;;16.25;46.42
66857;BME280;53766;50.280;19.160;2023-02-26T14:04:28;98280.59;;;16.26;46.63
66857;BME280;53766;50.280;19.160;2023-02-26T14:07:12;98290.41;;;16.25;46.52
66857;BME280;53766;50.280;19.160;2023-02-26T14:14:42;98301.09;;;16.32;46.45
66857;BME280;53766;50.280;19.160;2023-02-26T14:22:20;98308.88;;;16.34;46.47
66857;BME280;53766;50.280;19.160;2023-02-26T14:24:55;98307.03;;;16.34;46.41
66857;BME280;53766;50.280;19.160;2023-02-26T14:32:28;98310.56;;;16.41;46.39
66857;BME280;53766;50.280;19.160;2023-02-26T14:35:03;98312.63;;;16.46;46.39
66857;BME280;53766;50.280;19.160;2023-02-26T14:37:33;98312.25;;;16.49;46.38
66857;BME280;53766;50.280;19.160;2023-02-26T14:40:13;98314.50;;;16.52;46.38
66857;BME280;53766;50.280;19.160;2023-02-26T14:42:45;98311.03;;;16.52;46.40
66857;BME280;53766;50.280;19.160;2023-02-26T14:47:44;98320.50;;;16.61;46.40
66857;BME280;53766;50.280;19.160;2023-02-26T14:50:15;98324.59;;;16.63;46.35
66857;BME280;53766;50.280;19.160;2023-02-26T14:55:46;98329.72;;;16.65;46.24
66857;BME280;53766;50.280;19.160;2023-02-26T15:01:48;98343.88;;;16.72;46.24
66857;BME280;53766;50.280;19.160;2023-02-26T15:15:41;98366.94;;;16.86;46.06
66857;BME280;53766;50.280;19.160;2023-02-26T15:18:34;98371.63;;;16.84;46.12
66857;BME280;53766;50.280;19.160;2023-02-26T15:23:53;98381.66;;;16.89;46.21
66857;BME280;53766;50.280;19.160;2023-02-26T15:26:28;98396.81;;;16.89;46.17
66857;BME280;53766;50.280;19.160;2023-02-26T15:28:57;98405.44;;;16.91;46.19
66857;BME280;53766;50.280;19.160;2023-02-26T15:31:39;98406.69;;;16.95;46.06
66857;BME280;53766;50.280;19.160;2023-02-26T15:34:10;98403.84;;;16.96;46.07
66857;BME280;53766;50.280;19.160;2023-02-26T15:36:43;98406.28;;;16.98;46.13
66857;BME280;53766;50.280;19.160;2023-02-26T15:39:12;98402.63;;;16.99;46.16
66857;BME280;53766;50.280;19.160;2023-02-26T15:41:43;98400.97;;;16.98;46.18
66857;BME280;53766;50.280;19.160;2023-02-26T15:44:17;98409.97;;;16.97;46.25
66857;BME280;53766;50.280;19.160;2023-02-26T15:46:51;98407.94;;;16.99;46.09
66857;BME280;53766;50.280;19.160;2023-02-26T15:49:29;98413.25;;;16.99;46.21
66857;BME280;53766;50.280;19.160;2023-02-26T15:52:00;98414.25;;;16.98;46.28
66857;BME280;53766;50.280;19.160;2023-02-26T15:54:34;98418.59;;;16.99;46.32
66857;BME280;53766;50.280;19.160;2023-02-26T15:57:05;98419.41;;;16.99;46.31
66857;BME280;53766;50.280;19.160;2023-02-26T15:59:33;98421.25;;;16.99;46.32